Waverunner — ZCTE7 — position and weather

sailwx.info

Track history (hours):
 
Tides and Currents Weather Stations Pressure Air Temp Water Temp Dewpoint Dewpoint Depression Visibility Wind Speed Wind Dir Waves Ship Positions

Waverunner

Last reported at 2016-Jun-30 01:22 UTC. Time now 2016-Jun-30 16:02 UTC.
Position N 40°41' E 013°28'.

Length 41 m; draft 2 m.

MMSI: 319804000.

Date/timePositionNaut miles runAvg speedWind from/ knotsBaromVisibWave heightAir tempDewpointWater temp
2016-Jun-30 01:22N 40°41' E 013°28'1314.3
2016-Jun-30 00:27N 40°39' E 013°45'2014.1
2016-Jun-29 23:03N 40°35' E 014°10'3 6.6
2016-Jun-29 22:33N 40°34' E 014°14'0 0.0
2016-Jun-29 21:33N 40°34' E 014°14'1 0.3
2016-Jun-29 17:33N 40°33' E 014°14'0 0.0
2016-Jun-29 16:32N 40°33' E 014°14'0 0.0
2016-Jun-29 15:33N 40°33' E 014°14'0 0.0
2016-Jun-29 14:33N 40°33' E 014°14'0 0.0
2016-Jun-29 13:33N 40°33' E 014°14'0 0.0
2016-Jun-29 12:25N 40°33' E 014°14'1 1.4
2016-Jun-29 11:33N 40°34' E 014°14'8 7.7
2016-Jun-29 10:33N 40°29' E 014°22'11810.6
2016-Jun-28 23:27N 38°50' E 015°44'1010.8
2016-Jun-28 22:33N 38°40' E 015°47'1111.1
2016-Jun-28 21:33N 38°29' E 015°46'1111.5
2016-Jun-28 20:33N 38°18' E 015°43'3 2.7
2016-Jun-28 19:34N 38°15' E 015°43'0 0.0
2016-Jun-28 18:33N 38°15' E 015°43'0 0.0
2016-Jun-28 17:33N 38°15' E 015°43'0 0.0
2016-Jun-28 16:32N 38°15' E 015°43'0 0.0
2016-Jun-28 15:33N 38°15' E 015°43'0 0.0
2016-Jun-28 14:33N 38°15' E 015°43'1 1.1
2016-Jun-28 13:33N 38°15' E 015°41'8 7.9
2016-Jun-28 12:34N 38°08' E 015°39'0 0.4
2016-Jun-28 11:33N 38°08' E 015°39'0 0.0
2016-Jun-28 10:33N 38°08' E 015°39'0 0.0
2016-Jun-28 09:33N 38°08' E 015°39'0 0.0
2016-Jun-28 08:33N 38°08' E 015°39'3 2.8
2016-Jun-28 07:34N 38°06' E 015°36'9 9.4
2016-Jun-28 06:33N 37°57' E 015°39'  
2016-Jun-24 23:32N 42°10' E 018°52'1111.6
2016-Jun-24 22:33N 42°18' E 018°41'1010.2
2016-Jun-24 21:33N 42°26' E 018°33'6 6.2
2016-Jun-24 20:31N 42°26' E 018°41'0 0.0
2016-Jun-24 19:32N 42°26' E 018°41'0 0.0
2016-Jun-24 18:33N 42°26' E 018°41'0 0.0
2016-Jun-24 17:33N 42°26' E 018°41'0 0.0
2016-Jun-24 16:31N 42°26' E 018°41'2 1.9
2016-Jun-24 15:34N 42°28' E 018°41'2 0.3
2016-Jun-24 09:33N 42°29' E 018°39'0 0.0
2016-Jun-24 08:31N 42°29' E 018°39'0 0.0
2016-Jun-24 07:33N 42°29' E 018°39'4 1.2
2016-Jun-24 04:33N 42°26' E 018°41'0 0.0
2016-Jun-24 03:33N 42°26' E 018°41'0 0.0
2016-Jun-24 02:33N 42°26' E 018°41'0 0.0
2016-Jun-24 01:33N 42°26' E 018°41'0 0.0
2016-Jun-24 00:33N 42°26' E 018°41'0 0.0
2016-Jun-23 23:33N 42°26' E 018°41'1 0.8
2016-Jun-23 22:33N 42°26' E 018°40'9 8.6
2016-Jun-23 21:33N 42°23' E 018°29'  
Track history (hours):
 
Tides and Currents Weather Stations Pressure Air Temp Water Temp Dewpoint Dewpoint Depression Visibility Wind Speed Wind Dir Waves Ship Positions

Waverunner

Last reported at 2016-Jun-30 01:22 UTC. Time now 2016-Jun-30 16:02 UTC.
Position N 40°41' E 013°28'.

Length 41 m; draft 2 m.

MMSI: 319804000.

Date/timePositionNaut miles runAvg speedWind from/ knotsBaromVisibWave heightAir tempDewpointWater temp
2016-Jun-30 01:22N 40°41' E 013°28'1314.3
2016-Jun-30 00:27N 40°39' E 013°45'2014.1
2016-Jun-29 23:03N 40°35' E 014°10'3 6.6
2016-Jun-29 22:33N 40°34' E 014°14'0 0.0
2016-Jun-29 21:33N 40°34' E 014°14'1 0.3
2016-Jun-29 17:33N 40°33' E 014°14'0 0.0
2016-Jun-29 16:32N 40°33' E 014°14'0 0.0
2016-Jun-29 15:33N 40°33' E 014°14'0 0.0
2016-Jun-29 14:33N 40°33' E 014°14'0 0.0
2016-Jun-29 13:33N 40°33' E 014°14'0 0.0
2016-Jun-29 12:25N 40°33' E 014°14'1 1.4
2016-Jun-29 11:33N 40°34' E 014°14'8 7.7
2016-Jun-29 10:33N 40°29' E 014°22'11810.6
2016-Jun-28 23:27N 38°50' E 015°44'1010.8
2016-Jun-28 22:33N 38°40' E 015°47'1111.1
2016-Jun-28 21:33N 38°29' E 015°46'1111.5
2016-Jun-28 20:33N 38°18' E 015°43'3 2.7
2016-Jun-28 19:34N 38°15' E 015°43'0 0.0
2016-Jun-28 18:33N 38°15' E 015°43'0 0.0
2016-Jun-28 17:33N 38°15' E 015°43'0 0.0
2016-Jun-28 16:32N 38°15' E 015°43'0 0.0
2016-Jun-28 15:33N 38°15' E 015°43'0 0.0
2016-Jun-28 14:33N 38°15' E 015°43'1 1.1
2016-Jun-28 13:33N 38°15' E 015°41'8 7.9
2016-Jun-28 12:34N 38°08' E 015°39'0 0.4
2016-Jun-28 11:33N 38°08' E 015°39'0 0.0
2016-Jun-28 10:33N 38°08' E 015°39'0 0.0
2016-Jun-28 09:33N 38°08' E 015°39'0 0.0
2016-Jun-28 08:33N 38°08' E 015°39'3 2.8
2016-Jun-28 07:34N 38°06' E 015°36'9 9.4
2016-Jun-28 06:33N 37°57' E 015°39'  
2016-Jun-24 23:32N 42°10' E 018°52'1111.6
2016-Jun-24 22:33N 42°18' E 018°41'1010.2
2016-Jun-24 21:33N 42°26' E 018°33'6 6.2
2016-Jun-24 20:31N 42°26' E 018°41'0 0.0
2016-Jun-24 19:32N 42°26' E 018°41'0 0.0
2016-Jun-24 18:33N 42°26' E 018°41'0 0.0
2016-Jun-24 17:33N 42°26' E 018°41'0 0.0
2016-Jun-24 16:31N 42°26' E 018°41'2 1.9
2016-Jun-24 15:34N 42°28' E 018°41'2 0.3
2016-Jun-24 09:33N 42°29' E 018°39'0 0.0
2016-Jun-24 08:31N 42°29' E 018°39'0 0.0
2016-Jun-24 07:33N 42°29' E 018°39'4 1.2
2016-Jun-24 04:33N 42°26' E 018°41'0 0.0
2016-Jun-24 03:33N 42°26' E 018°41'0 0.0
2016-Jun-24 02:33N 42°26' E 018°41'0 0.0
2016-Jun-24 01:33N 42°26' E 018°41'0 0.0
2016-Jun-24 00:33N 42°26' E 018°41'0 0.0
2016-Jun-23 23:33N 42°26' E 018°41'1 0.8
2016-Jun-23 22:33N 42°26' E 018°40'9 8.6
2016-Jun-23 21:33N 42°23' E 018°29'  

Dump ship's entire track history